Time;durP1;ratioP1;P1;durP2;ratioP2;P2;SDS_P1;SDS_P2;PMS_P1;PMS_P2;Temp;Humidity;BMP_temperature;BMP_pressure;BME280_temperature;BME280_humidity;BME280_pressure;Samples;Min_cycle;Max_cycle;Signal;HPM_P1;HPM_P2
2024/04/22 00:00:32;;;;;;;8.48;7.88;;;;;;;;;;5539187;26;20685;-80
2024/04/22 00:02:58;;;;;;;9.02;8.32;;;;;;;;;;5539126;26;20356;-80
2024/04/22 00:05:24;;;;;;;8.20;7.60;;;;;;;;;;5539979;26;20319;-80
2024/04/22 00:07:50;;;;;;;8.30;7.70;;;;;;;;;;5539179;26;20324;-80
2024/04/22 00:10:16;;;;;;;8.32;7.72;;;;;;;;;;5539264;26;20364;-80
2024/04/22 00:12:42;;;;;;;7.70;7.10;;;;;;;;;;5539375;26;20363;-80
2024/04/22 00:15:08;;;;;;;8.68;8.00;;;;;;;;;;5539881;26;20328;-79
2024/04/22 00:17:34;;;;;;;8.27;7.63;;;;;;;;;;5539069;26;20362;-80
2024/04/22 00:20:00;;;;;;;8.35;7.75;;;;;;;;;;5539451;26;20347;-79
2024/04/22 00:22:26;;;;;;;9.38;8.65;;;;;;;;;;5539710;26;20379;-80
2024/04/22 00:24:52;;;;;;;9.73;8.93;;;;;;;;;;5539551;26;20932;-80
2024/04/22 00:27:18;;;;;;;8.98;8.27;;;;;;;;;;5539478;26;20331;-79
2024/04/22 00:29:44;;;;;;;9.07;8.38;;;;;;;;;;5534421;26;20356;-79
2024/04/22 00:32:10;;;;;;;9.00;8.30;;;;;;;;;;5538484;26;20471;-79
2024/04/22 00:34:36;;;;;;;9.15;8.45;;;;;;;;;;5538695;26;20368;-79
2024/04/22 00:37:02;;;;;;;9.57;8.88;;;;;;;;;;5539654;26;20380;-79
2024/04/22 00:39:28;;;;;;;9.93;9.13;;;;;;;;;;5539494;26;20717;-79
2024/04/22 00:41:54;;;;;;;9.33;8.63;;;;;;;;;;5539480;26;20319;-80
2024/04/22 00:44:20;;;;;;;9.23;8.52;;;;;;;;;;5539506;26;20331;-79
2024/04/22 00:46:46;;;;;;;9.43;8.63;;;;;;;;;;5539161;26;20419;-79
2024/04/22 00:49:13;;;;;;;9.48;8.68;;;;;;;;;;5536939;26;20342;-79
2024/04/22 00:51:39;;;;;;;9.50;8.70;;;;;;;;;;5538817;26;20312;-79
2024/04/22 00:54:07;;;;;;;9.20;8.50;;;;;;;;;;5538814;26;20365;-80
2024/04/22 00:56:33;;;;;;;8.82;8.13;;;;;;;;;;5539387;26;20374;-80
2024/04/22 00:59:00;;;;;;;8.80;8.07;;;;;;;;;;5537965;26;20371;-79
2024/04/22 01:01:27;;;;;;;8.57;7.88;;;;;;;;;;5538435;26;20418;-80
2024/04/22 01:03:53;;;;;;;8.63;7.95;;;;;;;;;;5515799;26;20331;-79
2024/04/22 01:06:19;;;;;;;8.93;8.13;;;;;;;;;;5535612;26;20364;-80
2024/04/22 01:08:45;;;;;;;8.98;8.27;;;;;;;;;;5538960;26;20327;-80
2024/04/22 01:11:11;;;;;;;8.20;7.53;;;;;;;;;;5538762;26;20343;-79
2024/04/22 01:13:37;;;;;;;7.95;7.35;;;;;;;;;;5539096;26;20393;-80
2024/04/22 01:16:03;;;;;;;7.57;7.00;;;;;;;;;;5538296;26;20324;-80
2024/04/22 01:18:29;;;;;;;7.47;6.95;;;;;;;;;;5538074;26;20350;-80
2024/04/22 01:20:56;;;;;;;7.93;7.22;;;;;;;;;;5538813;26;20832;-80
2024/04/22 01:23:22;;;;;;;7.90;7.25;;;;;;;;;;5538118;26;20327;-80
2024/04/22 01:25:57;;;;;;;8.15;7.55;;;;;;;;;;5538897;26;20372;-80
2024/04/22 01:28:23;;;;;;;7.57;6.97;;;;;;;;;;5538775;26;20362;-80
2024/04/22 01:30:49;;;;;;;6.53;6.03;;;;;;;;;;5538689;26;20707;-80
2024/04/22 01:33:15;;;;;;;5.95;5.47;;;;;;;;;;5538960;26;20369;-80
2024/04/22 01:35:41;;;;;;;7.65;5.55;;;;;;;;;;5538881;26;20413;-80
2024/04/22 01:38:07;;;;;;;5.95;5.55;;;;;;;;;;5538353;26;20336;-80
2024/04/22 01:40:34;;;;;;;6.00;5.50;;;;;;;;;;5538027;26;20328;-80
2024/04/22 01:43:00;;;;;;;5.82;5.32;;;;;;;;;;5539012;26;20329;-80
2024/04/22 01:45:26;;;;;;;5.53;5.10;;;;;;;;;;5537425;26;20339;-80
2024/04/22 01:47:52;;;;;;;5.68;5.28;;;;;;;;;;5523194;26;20320;-80
2024/04/22 01:50:18;;;;;;;5.70;5.30;;;;;;;;;;5539279;26;20360;-80
2024/04/22 01:52:44;;;;;;;5.80;5.40;;;;;;;;;;5534626;26;20327;-80
2024/04/22 01:55:10;;;;;;;5.60;5.20;;;;;;;;;;5538510;26;20921;-80
2024/04/22 01:57:36;;;;;;;5.70;5.30;;;;;;;;;;5537547;26;20361;-80
2024/04/22 02:00:02;;;;;;;6.03;5.53;;;;;;;;;;5512387;26;20314;-80
2024/04/22 02:02:28;;;;;;;5.47;5.07;;;;;;;;;;5527444;26;20363;-80
2024/04/22 02:04:54;;;;;;;5.10;4.70;;;;;;;;;;5524339;26;20327;-80
2024/04/22 02:07:20;;;;;;;5.82;5.43;;;;;;;;;;5537425;26;20859;-80
2024/04/22 02:09:46;;;;;;;5.32;4.93;;;;;;;;;;5537534;26;20352;-80
2024/04/22 02:12:12;;;;;;;5.25;4.90;;;;;;;;;;5537915;26;20672;-81
2024/04/22 02:14:38;;;;;;;5.50;5.10;;;;;;;;;;5537301;26;20332;-80
2024/04/22 02:17:04;;;;;;;5.32;4.93;;;;;;;;;;5536623;26;20362;-80
2024/04/22 02:19:30;;;;;;;5.38;4.97;;;;;;;;;;5537991;26;20336;-79
2024/04/22 02:21:56;;;;;;;5.20;4.80;;;;;;;;;;5527226;26;20326;-80
2024/04/22 02:24:22;;;;;;;5.10;4.70;;;;;;;;;;5529865;26;20372;-79
2024/04/22 02:26:48;;;;;;;4.90;4.60;;;;;;;;;;5505320;26;20385;-79
2024/04/22 02:29:14;;;;;;;4.80;4.50;;;;;;;;;;5537739;26;20323;-79
2024/04/22 02:31:40;;;;;;;4.95;4.55;;;;;;;;;;5537449;26;20368;-80
2024/04/22 02:34:06;;;;;;;4.90;4.50;;;;;;;;;;5536603;26;20320;-79
2024/04/22 02:36:32;;;;;;;3.95;3.65;;;;;;;;;;5503619;26;20930;-80
2024/04/22 02:38:58;;;;;;;3.45;3.20;;;;;;;;;;5537581;26;20323;-80
2024/04/22 02:41:24;;;;;;;4.30;4.00;;;;;;;;;;5536888;26;20823;-80
2024/04/22 02:43:50;;;;;;;3.97;3.67;;;;;;;;;;5537039;26;20335;-80
2024/04/22 02:46:16;;;;;;;3.20;3.00;;;;;;;;;;5537050;26;20343;-80
2024/04/22 02:48:42;;;;;;;3.80;3.40;;;;;;;;;;5536684;26;20435;-80
2024/04/22 02:51:08;;;;;;;3.73;3.50;;;;;;;;;;5536768;26;20327;-80
2024/04/22 02:53:34;;;;;;;4.55;4.25;;;;;;;;;;5533022;26;20832;-80
2024/04/22 02:56:00;;;;;;;4.15;3.85;;;;;;;;;;5536666;26;20347;-80
2024/04/22 02:58:26;;;;;;;4.53;4.22;;;;;;;;;;5535868;26;20363;-80
2024/04/22 03:00:54;;;;;;;4.68;4.28;;;;;;;;;;5536177;26;20736;-80
2024/04/22 03:03:20;;;;;;;4.25;3.95;;;;;;;;;;5534576;26;20327;-80
2024/04/22 03:05:46;;;;;;;5.10;4.70;;;;;;;;;;5534964;26;20383;-80
2024/04/22 03:08:12;;;;;;;5.40;5.00;;;;;;;;;;5536578;26;20323;-80
2024/04/22 03:10:38;;;;;;;5.40;5.00;;;;;;;;;;5536992;26;20660;-80
2024/04/22 03:13:11;;;;;;;5.82;5.32;;;;;;;;;;5536488;26;20432;-80
2024/04/22 03:15:37;;;;;;;5.47;5.07;;;;;;;;;;5536265;26;20438;-81
2024/04/22 03:18:03;;;;;;;5.57;5.18;;;;;;;;;;5536836;26;20391;-80
2024/04/22 03:20:30;;;;;;;5.63;5.22;;;;;;;;;;5536333;26;20370;-80
2024/04/22 03:22:56;;;;;;;5.60;5.20;;;;;;;;;;5538707;26;20362;-81
2024/04/22 03:25:22;;;;;;;5.60;5.10;;;;;;;;;;5524052;26;20808;-80
2024/04/22 03:27:49;;;;;;;5.40;5.00;;;;;;;;;;5539699;26;20934;-80
2024/04/22 03:30:15;;;;;;;6.00;5.50;;;;;;;;;;5539663;26;20328;-80
2024/04/22 03:32:40;;;;;;;6.30;5.85;;;;;;;;;;5538667;26;20335;-81
2024/04/22 03:35:06;;;;;;;6.80;6.30;;;;;;;;;;5508276;26;21311;-81
2024/04/22 03:37:32;;;;;;;6.70;6.20;;;;;;;;;;5539909;26;20331;-81
2024/04/22 03:39:58;;;;;;;6.30;5.85;;;;;;;;;;5540291;26;20835;-80
2024/04/22 03:42:24;;;;;;;6.63;6.07;;;;;;;;;;5532038;26;20383;-80
2024/04/22 03:44:50;;;;;;;6.40;5.90;;;;;;;;;;5525643;26;20319;-80
2024/04/22 03:50:01;;;;;;;6.22;5.72;;;;;;;;;;5539650;26;20394;-80
2024/04/22 03:52:27;;;;;;;7.13;6.53;;;;;;;;;;5539422;26;20332;-80
2024/04/22 03:54:54;;;;;;;6.50;6.00;;;;;;;;;;5537600;26;22135;-80
2024/04/22 03:57:20;;;;;;;6.63;6.13;;;;;;;;;;5538525;26;20973;-80
2024/04/22 03:59:46;;;;;;;6.80;6.30;;;;;;;;;;5538609;26;20359;-80
2024/04/22 04:02:12;;;;;;;7.13;6.53;;;;;;;;;;5541771;26;20358;-80
2024/04/22 04:04:38;;;;;;;7.10;6.60;;;;;;;;;;5540938;26;20323;-81
2024/04/22 04:07:04;;;;;;;7.38;6.78;;;;;;;;;;5539912;26;20359;-81
2024/04/22 04:09:30;;;;;;;7.68;7.00;;;;;;;;;;5539317;26;20346;-80
2024/04/22 04:11:56;;;;;;;7.90;7.20;;;;;;;;;;5539382;26;20320;-80
2024/04/22 04:14:22;;;;;;;7.93;7.30;;;;;;;;;;5538891;26;20344;-81
2024/04/22 04:16:48;;;;;;;8.77;7.97;;;;;;;;;;5538812;26;20328;-80
2024/04/22 04:19:14;;;;;;;9.05;8.25;;;;;;;;;;5538601;26;20344;-80
2024/04/22 04:21:40;;;;;;;9.27;8.52;;;;;;;;;;5538907;26;20332;-80
2024/04/22 04:24:06;;;;;;;8.80;8.10;;;;;;;;;;5524325;26;20346;-80
2024/04/22 04:26:32;;;;;;;10.00;9.20;;;;;;;;;;5538150;26;20324;-80
2024/04/22 04:28:58;;;;;;;9.23;8.43;;;;;;;;;;5538263;26;20316;-80
2024/04/22 04:31:24;;;;;;;8.25;7.50;;;;;;;;;;5538382;26;20849;-81
2024/04/22 04:33:50;;;;;;;8.25;7.45;;;;;;;;;;5538905;26;20332;-81
2024/04/22 04:36:16;;;;;;;7.80;7.20;;;;;;;;;;5537667;26;20820;-80
2024/04/22 04:38:42;;;;;;;8.07;7.47;;;;;;;;;;5538232;26;20366;-80
2024/04/22 04:41:08;;;;;;;7.78;7.20;;;;;;;;;;5538975;26;20717;-81
2024/04/22 04:43:34;;;;;;;8.30;7.60;;;;;;;;;;5537144;26;20388;-80
2024/04/22 04:46:00;;;;;;;8.25;7.45;;;;;;;;;;5536587;26;20324;-80
2024/04/22 04:48:26;;;;;;;8.00;7.30;;;;;;;;;;5536943;26;20320;-80
2024/04/22 04:50:52;;;;;;;7.30;6.70;;;;;;;;;;5533760;26;20674;-81
2024/04/22 04:53:19;;;;;;;7.20;6.50;;;;;;;;;;5534198;26;20335;-80
2024/04/22 04:55:48;;;;;;;6.82;6.32;;;;;;;;;;5532676;26;20337;-80
2024/04/22 04:58:14;;;;;;;7.67;6.97;;;;;;;;;;5531854;26;20409;-80
2024/04/22 05:00:41;;;;;;;7.05;6.45;;;;;;;;;;5533530;26;20333;-81
2024/04/22 05:03:07;;;;;;;6.90;6.35;;;;;;;;;;5533516;26;20335;-81
2024/04/22 05:05:32;;;;;;;6.60;6.10;;;;;;;;;;5533676;26;20703;-80
2024/04/22 05:07:59;;;;;;;6.80;6.18;;;;;;;;;;5533259;26;20335;-80
2024/04/22 05:10:25;;;;;;;6.30;5.80;;;;;;;;;;5531023;26;20390;-81
2024/04/22 05:12:51;;;;;;;6.40;5.90;;;;;;;;;;5532118;26;20323;-80
2024/04/22 05:15:17;;;;;;;6.70;6.10;;;;;;;;;;5533027;26;20358;-81
2024/04/22 05:17:43;;;;;;;6.82;6.22;;;;;;;;;;5534014;26;20320;-81
2024/04/22 05:20:10;;;;;;;7.13;6.53;;;;;;;;;;5534340;26;20319;-80
2024/04/22 05:22:36;;;;;;;7.40;6.80;;;;;;;;;;5534010;26;20324;-81
2024/04/22 05:25:02;;;;;;;7.82;7.13;;;;;;;;;;5517211;26;20327;-81
2024/04/22 05:27:28;;;;;;;8.38;7.78;;;;;;;;;;5532375;26;20343;-81
2024/04/22 05:29:54;;;;;;;8.93;8.23;;;;;;;;;;5534830;26;20340;-81
2024/04/22 05:32:20;;;;;;;10.82;9.93;;;;;;;;;;5533910;26;20416;-80
2024/04/22 05:37:31;;;;;;;9.77;9.05;;;;;;;;;;5533443;26;20410;-80
2024/04/22 05:39:57;;;;;;;9.35;8.55;;;;;;;;;;5526669;26;20339;-80
2024/04/22 05:42:23;;;;;;;10.13;9.13;;;;;;;;;;5533843;26;20319;-81
2024/04/22 05:44:49;;;;;;;10.07;9.18;;;;;;;;;;5532214;26;20312;-80
2024/04/22 05:47:15;;;;;;;8.95;8.15;;;;;;;;;;5533489;26;20661;-81
2024/04/22 05:49:41;;;;;;;8.98;8.20;;;;;;;;;;5530309;26;20348;-81
2024/04/22 05:52:07;;;;;;;9.30;8.60;;;;;;;;;;5531265;26;20328;-81
2024/04/22 05:54:33;;;;;;;9.30;8.50;;;;;;;;;;5531399;26;20348;-80
2024/04/22 05:56:59;;;;;;;9.10;8.20;;;;;;;;;;5533821;26;20417;-80
2024/04/22 05:59:25;;;;;;;9.68;8.77;;;;;;;;;;5533301;26;20422;-81
2024/04/22 06:01:51;;;;;;;9.50;8.60;;;;;;;;;;5532647;26;20357;-80
2024/04/22 06:04:17;;;;;;;9.07;8.35;;;;;;;;;;5531448;26;20382;-81
2024/04/22 06:06:44;;;;;;;8.73;7.88;;;;;;;;;;5531790;26;20343;-81
2024/04/22 06:09:10;;;;;;;8.70;8.00;;;;;;;;;;5532855;26;20351;-80
2024/04/22 06:11:39;;;;;;;9.13;8.23;;;;;;;;;;5531613;26;20356;-80
2024/04/22 06:14:05;;;;;;;9.05;8.15;;;;;;;;;;5530378;26;20328;-80
2024/04/22 06:16:32;;;;;;;8.52;7.75;;;;;;;;;;5530517;26;20367;-80
2024/04/22 06:18:58;;;;;;;9.53;8.50;;;;;;;;;;5532512;26;20407;-80
2024/04/22 06:21:24;;;;;;;8.25;7.55;;;;;;;;;;5528653;26;20368;-80
2024/04/22 06:23:51;;;;;;;8.32;7.63;;;;;;;;;;5518433;26;20374;-78
2024/04/22 06:26:17;;;;;;;8.60;7.82;;;;;;;;;;5530027;26;20332;-80
2024/04/22 06:28:43;;;;;;;8.27;7.47;;;;;;;;;;5533447;26;20336;-80
2024/04/22 06:31:09;;;;;;;8.35;7.55;;;;;;;;;;5535198;26;20319;-80
2024/04/22 06:33:40;;;;;;;8.35;7.65;;;;;;;;;;5534100;26;20323;-80
2024/04/22 06:36:06;;;;;;;8.88;8.07;;;;;;;;;;5534024;26;20371;-80
2024/04/22 06:38:32;;;;;;;9.10;8.25;;;;;;;;;;5532920;26;20339;-80
2024/04/22 06:40:58;;;;;;;9.70;8.80;;;;;;;;;;5533061;26;20328;-80
2024/04/22 06:43:24;;;;;;;9.65;8.65;;;;;;;;;;5530889;26;20822;-80
2024/04/22 06:45:50;;;;;;;9.20;8.40;;;;;;;;;;5534217;26;20327;-81
2024/04/22 06:48:17;;;;;;;9.50;8.70;;;;;;;;;;5532838;26;20328;-80
2024/04/22 06:50:43;;;;;;;9.23;8.43;;;;;;;;;;5532417;26;20340;-80
2024/04/22 06:53:09;;;;;;;8.82;8.02;;;;;;;;;;5533411;26;21012;-80
2024/04/22 06:55:35;;;;;;;8.63;7.93;;;;;;;;;;5531937;26;20343;-80
2024/04/22 06:58:01;;;;;;;9.45;8.68;;;;;;;;;;5536204;26;20807;-80
2024/04/22 07:00:28;;;;;;;9.20;8.50;;;;;;;;;;5534792;26;20492;-80
2024/04/22 07:02:55;;;;;;;8.95;8.15;;;;;;;;;;5535640;26;20341;-80
2024/04/22 07:05:21;;;;;;;8.52;7.82;;;;;;;;;;5536041;26;20395;-80
2024/04/22 07:07:47;;;;;;;8.23;7.63;;;;;;;;;;5534755;26;20327;-80
2024/04/22 07:10:13;;;;;;;7.93;7.22;;;;;;;;;;5535294;26;20367;-80
2024/04/22 07:12:41;;;;;;;7.43;6.82;;;;;;;;;;5535893;26;20871;-81
2024/04/22 07:15:07;;;;;;;7.53;6.50;;;;;;;;;;5536157;26;20399;-80
2024/04/22 07:17:33;;;;;;;6.15;5.65;;;;;;;;;;5536172;26;20355;-80
2024/04/22 07:19:59;;;;;;;6.28;5.78;;;;;;;;;;5535837;26;20339;-80
2024/04/22 07:22:32;;;;;;;6.28;5.78;;;;;;;;;;5536239;26;20357;-80
2024/04/22 07:24:58;;;;;;;6.10;5.60;;;;;;;;;;5525508;26;20360;-78
2024/04/22 07:27:24;;;;;;;5.63;5.18;;;;;;;;;;5535152;26;20331;-80
2024/04/22 07:29:50;;;;;;;5.82;5.40;;;;;;;;;;5535573;26;20367;-80
2024/04/22 07:32:16;;;;;;;5.80;5.30;;;;;;;;;;5536470;26;20360;-80
2024/04/22 07:34:42;;;;;;;5.63;5.13;;;;;;;;;;5536468;26;20407;-80
2024/04/22 07:37:32;;;;;;;5.78;5.28;;;;;;;;;;5535549;26;20375;-80
2024/04/22 07:40:03;;;;;;;5.60;5.10;;;;;;;;;;5511972;26;20333;-80
2024/04/22 07:42:29;;;;;;;5.07;4.57;;;;;;;;;;5536571;26;20403;-80
2024/04/22 07:44:54;;;;;;;5.00;4.60;;;;;;;;;;5530783;26;20324;-80
2024/04/22 07:47:20;;;;;;;4.57;4.18;;;;;;;;;;5534405;26;20856;-80
2024/04/22 07:49:46;;;;;;;5.20;4.80;;;;;;;;;;5536223;26;20546;-80
2024/04/22 07:52:12;;;;;;;4.90;4.50;;;;;;;;;;5537000;26;20331;-80
2024/04/22 07:54:39;;;;;;;5.40;4.90;;;;;;;;;;5538061;26;20504;-80
2024/04/22 07:57:05;;;;;;;5.03;4.63;;;;;;;;;;5535980;26;20335;-80
2024/04/22 07:59:31;;;;;;;5.38;4.97;;;;;;;;;;5536202;26;20690;-80
2024/04/22 08:01:57;;;;;;;4.88;4.40;;;;;;;;;;5535759;26;20396;-80
2024/04/22 08:04:23;;;;;;;5.43;5.03;;;;;;;;;;5536727;26;20393;-80
2024/04/22 08:06:52;;;;;;;5.22;4.80;;;;;;;;;;5535855;26;20323;-80
2024/04/22 08:09:18;;;;;;;5.22;4.82;;;;;;;;;;5535500;26;20383;-80
2024/04/22 08:11:44;;;;;;;5.30;4.90;;;;;;;;;;5536169;26;20362;-80
2024/04/22 08:14:10;;;;;;;5.13;4.57;;;;;;;;;;5532915;26;20434;-80
2024/04/22 08:16:36;;;;;;;5.10;4.70;;;;;;;;;;5532142;26;20844;-80
2024/04/22 08:19:02;;;;;;;5.03;4.63;;;;;;;;;;5533142;26;20323;-80
2024/04/22 08:21:28;;;;;;;5.50;5.00;;;;;;;;;;5532819;26;20327;-80
2024/04/22 08:23:54;;;;;;;5.30;4.90;;;;;;;;;;5522623;26;20319;-80
2024/04/22 08:26:20;;;;;;;5.95;5.35;;;;;;;;;;5533193;26;20343;-80
2024/04/22 08:28:46;;;;;;;5.97;5.38;;;;;;;;;;5536029;26;20344;-80
2024/04/22 08:31:12;;;;;;;6.97;5.90;;;;;;;;;;5536115;26;20360;-80
2024/04/22 08:33:38;;;;;;;6.88;6.18;;;;;;;;;;5536695;26;20320;-80
2024/04/22 08:36:04;;;;;;;6.93;6.25;;;;;;;;;;5533960;26;20836;-80
2024/04/22 08:38:30;;;;;;;7.30;6.70;;;;;;;;;;5529758;26;20688;-79
2024/04/22 08:40:56;;;;;;;7.72;7.13;;;;;;;;;;5527467;26;20359;-80
2024/04/22 08:43:23;;;;;;;7.67;6.97;;;;;;;;;;5527467;26;21000;-79
2024/04/22 08:45:49;;;;;;;7.88;7.18;;;;;;;;;;5502331;26;20325;-80
2024/04/22 08:48:15;;;;;;;8.30;7.50;;;;;;;;;;5527120;26;20826;-80
2024/04/22 08:50:41;;;;;;;8.55;7.75;;;;;;;;;;5527075;26;20383;-80
2024/04/22 08:53:11;;;;;;;8.23;7.53;;;;;;;;;;5528098;26;20316;-80
2024/04/22 08:55:38;;;;;;;7.97;7.23;;;;;;;;;;5526781;26;20465;-80
2024/04/22 08:58:04;;;;;;;8.43;7.70;;;;;;;;;;5528124;26;20326;-80
2024/04/22 09:00:30;;;;;;;8.70;8.00;;;;;;;;;;5526881;26;20340;-80
2024/04/22 09:02:56;;;;;;;8.80;8.05;;;;;;;;;;5527253;26;20420;-80
2024/04/22 09:05:23;;;;;;;9.50;8.80;;;;;;;;;;5526611;26;20331;-80
2024/04/22 09:07:58;;;;;;;9.57;8.67;;;;;;;;;;5527389;26;20841;-80
2024/04/22 09:10:25;;;;;;;9.38;8.57;;;;;;;;;;5527140;26;20390;-80
2024/04/22 09:12:57;;;;;;;9.90;9.00;;;;;;;;;;5526278;26;20458;-80
2024/04/22 09:15:23;;;;;;;10.50;9.60;;;;;;;;;;5527102;26;20370;-80
2024/04/22 09:17:49;;;;;;;10.48;9.50;;;;;;;;;;5526916;26;20835;-80
2024/04/22 09:20:22;;;;;;;10.43;9.52;;;;;;;;;;5525562;26;20323;-80
2024/04/22 09:22:48;;;;;;;9.65;8.90;;;;;;;;;;5526528;26;20387;-80
2024/04/22 09:25:14;;;;;;;10.05;9.30;;;;;;;;;;5526923;26;20406;-80
2024/04/22 09:27:44;;;;;;;9.18;8.48;;;;;;;;;;5526091;26;20324;-80
2024/04/22 09:30:12;;;;;;;8.85;8.10;;;;;;;;;;5526521;26;20441;-80
2024/04/22 09:32:39;;;;;;;9.60;8.70;;;;;;;;;;5526529;26;20358;-80
2024/04/22 09:35:13;;;;;;;9.00;8.30;;;;;;;;;;5526947;26;20432;-80
2024/04/22 09:37:40;;;;;;;8.15;7.53;;;;;;;;;;5527473;26;20494;-80
2024/04/22 09:40:06;;;;;;;9.40;8.60;;;;;;;;;;5526511;26;20356;-80
2024/04/22 09:42:33;;;;;;;7.80;7.20;;;;;;;;;;5510280;26;20469;-80
2024/04/22 09:44:59;;;;;;;8.38;7.68;;;;;;;;;;5525554;26;20428;-80
2024/04/22 09:47:26;;;;;;;8.13;7.43;;;;;;;;;;5526148;26;20931;-80
2024/04/22 09:49:52;;;;;;;8.95;8.20;;;;;;;;;;5525549;26;20451;-80
2024/04/22 09:52:19;;;;;;;8.85;8.05;;;;;;;;;;5526534;26;20327;-80
2024/04/22 09:54:46;;;;;;;10.00;9.15;;;;;;;;;;5527037;26;20333;-80
2024/04/22 09:57:12;;;;;;;8.90;8.20;;;;;;;;;;5526115;26;20379;-80
2024/04/22 09:59:39;;;;;;;7.97;7.23;;;;;;;;;;5525921;26;20351;-80
2024/04/22 10:02:05;;;;;;;8.27;7.57;;;;;;;;;;5526542;26;20828;-80
2024/04/22 10:04:31;;;;;;;7.90;7.20;;;;;;;;;;5525656;26;20333;-80
2024/04/22 10:06:57;;;;;;;8.02;7.43;;;;;;;;;;5528327;26;20327;-80
2024/04/22 10:09:23;;;;;;;8.05;7.28;;;;;;;;;;5525748;26;20383;-80
2024/04/22 10:11:49;;;;;;;7.18;6.65;;;;;;;;;;5493196;26;20466;-80
2024/04/22 10:14:16;;;;;;;7.28;6.57;;;;;;;;;;5525493;26;20413;-80
2024/04/22 10:16:59;;;;;;;7.80;7.10;;;;;;;;;;5525678;26;20329;-80
2024/04/22 10:19:28;;;;;;;7.22;6.63;;;;;;;;;;5525252;26;20384;-80
2024/04/22 10:21:58;;;;;;;7.30;6.70;;;;;;;;;;5524940;26;20401;-80
2024/04/22 10:24:50;;;;;;;6.75;6.25;;;;;;;;;;5525694;26;20340;-80
2024/04/22 10:27:16;;;;;;;6.82;6.22;;;;;;;;;;5516924;26;20414;-80
2024/04/22 10:29:42;;;;;;;7.00;6.40;;;;;;;;;;5525216;26;20368;-80
2024/04/22 10:32:08;;;;;;;6.63;6.13;;;;;;;;;;5528908;26;20673;-80
2024/04/22 10:34:38;;;;;;;6.85;6.25;;;;;;;;;;5529151;26;20331;-80
2024/04/22 10:37:04;;;;;;;6.70;6.20;;;;;;;;;;5496389;26;20448;-80
2024/04/22 10:39:30;;;;;;;6.72;6.20;;;;;;;;;;5530857;26;20331;-80
2024/04/22 10:41:56;;;;;;;7.18;6.47;;;;;;;;;;5529490;26;20363;-80
2024/04/22 10:44:22;;;;;;;7.27;6.57;;;;;;;;;;5529913;26;20495;-80
2024/04/22 10:46:48;;;;;;;6.88;6.28;;;;;;;;;;5530460;26;20355;-80
2024/04/22 10:49:14;;;;;;;7.57;6.97;;;;;;;;;;5528559;26;20368;-80
2024/04/22 10:51:40;;;;;;;7.45;6.85;;;;;;;;;;5529029;26;20660;-80
2024/04/22 10:54:06;;;;;;;7.07;6.50;;;;;;;;;;5529037;26;20364;-80
2024/04/22 10:56:33;;;;;;;6.90;6.20;;;;;;;;;;5528960;26;20359;-81
2024/04/22 10:59:00;;;;;;;6.78;6.18;;;;;;;;;;5528967;26;20385;-80
2024/04/22 11:01:26;;;;;;;6.68;6.18;;;;;;;;;;5529188;26;20328;-80
2024/04/22 11:03:52;;;;;;;6.18;5.72;;;;;;;;;;5529015;26;20316;-80
2024/04/22 11:06:18;;;;;;;5.85;5.43;;;;;;;;;;5531519;26;20491;-80
2024/04/22 11:08:44;;;;;;;6.55;6.05;;;;;;;;;;5530594;26;20358;-80
2024/04/22 11:11:12;;;;;;;6.40;5.90;;;;;;;;;;5529236;26;20871;-80
2024/04/22 11:13:38;;;;;;;6.65;6.15;;;;;;;;;;5529424;26;20325;-81
2024/04/22 11:16:11;;;;;;;6.80;6.20;;;;;;;;;;5529057;26;20368;-81
2024/04/22 11:18:38;;;;;;;6.70;6.20;;;;;;;;;;5528641;26;20423;-80
2024/04/22 11:21:05;;;;;;;7.10;6.40;;;;;;;;;;5529097;26;20371;-80
2024/04/22 11:23:31;;;;;;;6.95;6.45;;;;;;;;;;5522865;26;20326;-80
2024/04/22 11:25:57;;;;;;;6.90;6.40;;;;;;;;;;5518394;26;20327;-80
2024/04/22 11:28:23;;;;;;;6.70;6.10;;;;;;;;;;5528015;26;20336;-80
2024/04/22 11:30:50;;;;;;;8.75;6.80;;;;;;;;;;5528271;26;20857;-78
2024/04/22 11:33:18;;;;;;;7.28;6.68;;;;;;;;;;5528717;26;20332;-80
2024/04/22 11:35:44;;;;;;;6.88;6.38;;;;;;;;;;5527837;26;20328;-80
2024/04/22 11:38:13;;;;;;;6.75;6.15;;;;;;;;;;5527877;26;20335;-80
2024/04/22 11:40:39;;;;;;;6.78;6.22;;;;;;;;;;5527494;26;20707;-80
2024/04/22 11:43:05;;;;;;;6.68;6.18;;;;;;;;;;5510899;26;20330;-80
2024/04/22 11:45:31;;;;;;;6.68;5.95;;;;;;;;;;5522907;26;20350;-80
2024/04/22 11:47:57;;;;;;;7.10;6.57;;;;;;;;;;5528138;26;20835;-80
2024/04/22 11:50:23;;;;;;;6.68;6.07;;;;;;;;;;5526946;26;20384;-80
2024/04/22 11:52:49;;;;;;;6.93;6.37;;;;;;;;;;5528740;26;20718;-80
2024/04/22 11:55:15;;;;;;;6.45;5.95;;;;;;;;;;5527991;26;20358;-80
2024/04/22 11:57:41;;;;;;;6.10;5.60;;;;;;;;;;5528412;26;20823;-80
2024/04/22 12:00:08;;;;;;;6.40;5.90;;;;;;;;;;5526931;26;20343;-80
2024/04/22 12:02:34;;;;;;;6.37;5.83;;;;;;;;;;5527927;26;20445;-80
2024/04/22 12:05:07;;;;;;;6.40;5.90;;;;;;;;;;5528410;26;20328;-80
2024/04/22 12:07:33;;;;;;;6.03;5.53;;;;;;;;;;5528242;26;20362;-81
2024/04/22 12:09:59;;;;;;;6.20;5.70;;;;;;;;;;5528495;26;20673;-80
2024/04/22 12:12:25;;;;;;;6.50;5.80;;;;;;;;;;5528791;26;20484;-80
2024/04/22 12:14:51;;;;;;;6.78;6.28;;;;;;;;;;5529568;26;20327;-80
2024/04/22 12:17:17;;;;;;;6.10;5.47;;;;;;;;;;5529073;26;20812;-78
2024/04/22 12:19:43;;;;;;;6.05;5.63;;;;;;;;;;5528238;26;20337;-80
2024/04/22 12:22:09;;;;;;;6.70;6.05;;;;;;;;;;5529714;26;20884;-80
2024/04/22 12:24:35;;;;;;;6.10;5.50;;;;;;;;;;5511753;26;20335;-81
2024/04/22 12:27:01;;;;;;;6.50;5.80;;;;;;;;;;5528003;26;20332;-81
2024/04/22 12:29:27;;;;;;;6.20;5.60;;;;;;;;;;5527181;26;20364;-81
2024/04/22 12:31:53;;;;;;;6.90;6.28;;;;;;;;;;5527736;26;20347;-81
2024/04/22 12:34:19;;;;;;;6.47;5.97;;;;;;;;;;5527892;26;20332;-81
2024/04/22 12:36:45;;;;;;;6.60;6.10;;;;;;;;;;5527830;26;20454;-81
2024/04/22 12:39:11;;;;;;;6.30;5.80;;;;;;;;;;5527022;26;20367;-81
2024/04/22 12:41:37;;;;;;;6.30;5.80;;;;;;;;;;5526530;26;20336;-81
2024/04/22 12:44:03;;;;;;;6.20;5.60;;;;;;;;;;5527922;26;20883;-81
2024/04/22 12:50:42;;;;;;;5.75;5.35;;;;;;;;;;5527482;26;20343;-81
2024/04/22 12:52:02;;;;;;;5.75;5.25;;;;;;;;;;5527825;26;20368;-81
2024/04/22 12:54:28;;;;;;;5.95;5.45;;;;;;;;;;5527585;26;20327;-80
2024/04/22 12:56:54;;;;;;;6.10;5.50;;;;;;;;;;5527645;26;20327;-80
2024/04/22 12:59:20;;;;;;;6.50;5.93;;;;;;;;;;5527108;26;20812;-81
2024/04/22 13:01:46;;;;;;;6.20;5.70;;;;;;;;;;5527009;26;20362;-80
2024/04/22 13:04:12;;;;;;;6.03;5.53;;;;;;;;;;5526694;26;20411;-81
2024/04/22 13:06:38;;;;;;;5.90;5.40;;;;;;;;;;5527514;26;20716;-81
2024/04/22 13:09:04;;;;;;;6.10;5.60;;;;;;;;;;5526857;26;20440;-81
2024/04/22 13:11:30;;;;;;;5.97;5.47;;;;;;;;;;5526953;26;20407;-81
2024/04/22 13:13:57;;;;;;;6.20;5.68;;;;;;;;;;5527437;26;20367;-81
2024/04/22 13:16:22;;;;;;;5.88;5.38;;;;;;;;;;5500945;26;20358;-81
2024/04/22 13:18:48;;;;;;;5.80;5.30;;;;;;;;;;5526568;26;20327;-81
2024/04/22 13:21:14;;;;;;;5.68;5.15;;;;;;;;;;5527753;26;20890;-81
2024/04/22 13:23:40;;;;;;;5.63;5.13;;;;;;;;;;5526192;26;20370;-81
2024/04/22 13:26:06;;;;;;;5.22;4.82;;;;;;;;;;5526988;26;20364;-81
2024/04/22 13:28:32;;;;;;;5.50;5.10;;;;;;;;;;5526517;26;20925;-80
2024/04/22 13:30:59;;;;;;;5.68;5.18;;;;;;;;;;5526084;26;20437;-81
2024/04/22 13:33:25;;;;;;;5.25;4.80;;;;;;;;;;5526475;26;20677;-81
2024/04/22 13:35:51;;;;;;;5.95;5.38;;;;;;;;;;5525734;26;20449;-81
2024/04/22 13:38:17;;;;;;;4.75;4.35;;;;;;;;;;5504112;26;20332;-81
2024/04/22 13:40:43;;;;;;;4.97;4.57;;;;;;;;;;5526417;26;20853;-81
2024/04/22 13:43:09;;;;;;;4.60;4.30;;;;;;;;;;5525869;26;20864;-81
2024/04/22 13:45:35;;;;;;;5.55;5.05;;;;;;;;;;5527059;26;20331;-81
2024/04/22 13:48:01;;;;;;;5.50;4.72;;;;;;;;;;5525700;26;20364;-81
2024/04/22 13:50:27;;;;;;;6.38;4.57;;;;;;;;;;5525924;26;20366;-82
2024/04/22 13:52:53;;;;;;;4.87;4.37;;;;;;;;;;5526423;26;20450;-82
2024/04/22 13:55:19;;;;;;;5.00;4.60;;;;;;;;;;5526617;26;20331;-81
2024/04/22 13:57:47;;;;;;;5.00;4.60;;;;;;;;;;5526189;26;20366;-81
2024/04/22 14:00:13;;;;;;;4.75;4.20;;;;;;;;;;5526005;26;20336;-81
2024/04/22 14:02:39;;;;;;;4.75;4.35;;;;;;;;;;5525480;26;20331;-82
2024/04/22 14:05:05;;;;;;;4.63;4.22;;;;;;;;;;5525239;26;20666;-81
2024/04/22 14:07:32;;;;;;;4.97;4.50;;;;;;;;;;5525449;26;20327;-80
2024/04/22 14:09:58;;;;;;;4.75;4.35;;;;;;;;;;5525751;26;20335;-81
2024/04/22 14:12:24;;;;;;;4.57;4.18;;;;;;;;;;5525329;26;20361;-81
2024/04/22 14:14:50;;;;;;;4.75;4.35;;;;;;;;;;5525500;26;20335;-81
2024/04/22 14:17:16;;;;;;;4.40;4.00;;;;;;;;;;5524707;26;20658;-80
2024/04/22 14:19:42;;;;;;;4.33;4.03;;;;;;;;;;5525409;26;20460;-81
2024/04/22 14:22:08;;;;;;;3.92;3.50;;;;;;;;;;5525101;26;20327;-81
2024/04/22 14:24:34;;;;;;;4.40;3.90;;;;;;;;;;5509082;26;20812;-80
2024/04/22 14:27:00;;;;;;;3.90;3.50;;;;;;;;;;5524761;26;20324;-81
2024/04/22 14:29:26;;;;;;;4.22;3.90;;;;;;;;;;5524623;26;20884;-81
2024/04/22 14:31:52;;;;;;;4.20;3.80;;;;;;;;;;5524641;26;20320;-81
2024/04/22 14:34:18;;;;;;;3.90;3.60;;;;;;;;;;5525283;26;20324;-80
2024/04/22 14:36:44;;;;;;;4.05;3.70;;;;;;;;;;5524295;26;20323;-80
2024/04/22 14:39:09;;;;;;;4.30;3.90;;;;;;;;;;5524750;26;20362;-80
2024/04/22 14:41:36;;;;;;;3.78;3.47;;;;;;;;;;5524503;26;20343;-82
2024/04/22 14:44:02;;;;;;;3.83;3.53;;;;;;;;;;5524557;26;20339;-81
2024/04/22 14:46:28;;;;;;;4.23;3.90;;;;;;;;;;5524898;26;20920;-81